sensor_id;sensor_type;location;lat;lon;timestamp;pressure;altitude;pressure_sealevel;temperature;humidity
22862;BME280;11598;50.652;6.172;2023-03-22T00:05:44;96010.75;;;7.54;100.00
22862;BME280;11598;50.652;6.172;2023-03-22T00:15:44;95997.41;;;7.60;100.00
22862;BME280;11598;50.652;6.172;2023-03-22T00:25:48;95986.75;;;7.52;100.00
22862;BME280;11598;50.652;6.172;2023-03-22T00:35:53;95970.66;;;7.35;100.00
22862;BME280;11598;50.652;6.172;2023-03-22T00:45:54;95954.06;;;7.27;100.00
22862;BME280;11598;50.652;6.172;2023-03-22T00:55:57;95943.41;;;7.18;100.00
22862;BME280;11598;50.652;6.172;2023-03-22T01:05:58;95935.16;;;7.13;100.00
22862;BME280;11598;50.652;6.172;2023-03-22T01:15:58;95927.22;;;7.04;100.00
22862;BME280;11598;50.652;6.172;2023-03-22T01:25:59;95917.53;;;6.94;100.00
22862;BME280;11598;50.652;6.172;2023-03-22T01:36:00;95905.03;;;6.88;100.00
22862;BME280;11598;50.652;6.172;2023-03-22T01:46:00;95892.94;;;6.89;100.00
22862;BME280;11598;50.652;6.172;2023-03-22T01:56:01;95877.75;;;6.84;100.00
22862;BME280;11598;50.652;6.172;2023-03-22T02:06:02;95866.50;;;6.85;100.00
22862;BME280;11598;50.652;6.172;2023-03-22T02:16:06;95858.84;;;6.84;100.00
22862;BME280;11598;50.652;6.172;2023-03-22T02:46:59;95827.50;;;6.64;100.00
22862;BME280;11598;50.652;6.172;2023-03-22T02:57:12;95818.75;;;6.54;100.00
22862;BME280;11598;50.652;6.172;2023-03-22T03:07:16;95812.25;;;6.48;100.00
22862;BME280;11598;50.652;6.172;2023-03-22T03:28:06;95785.53;;;6.49;100.00
22862;BME280;11598;50.652;6.172;2023-03-22T03:38:10;95775.69;;;6.54;100.00
22862;BME280;11598;50.652;6.172;2023-03-22T03:48:18;95764.25;;;6.59;100.00
22862;BME280;11598;50.652;6.172;2023-03-22T03:58:20;95759.44;;;6.65;100.00
22862;BME280;11598;50.652;6.172;2023-03-22T04:08:20;95762.88;;;6.66;100.00
22862;BME280;11598;50.652;6.172;2023-03-22T04:18:20;95743.88;;;6.67;100.00
22862;BME280;11598;50.652;6.172;2023-03-22T04:28:21;95736.22;;;6.65;100.00
22862;BME280;11598;50.652;6.172;2023-03-22T04:38:23;95721.91;;;6.61;100.00
22862;BME280;11598;50.652;6.172;2023-03-22T04:48:24;95733.63;;;6.65;100.00
22862;BME280;11598;50.652;6.172;2023-03-22T04:58:27;95722.91;;;6.71;100.00
22862;BME280;11598;50.652;6.172;2023-03-22T05:08:28;95746.75;;;6.75;100.00
22862;BME280;11598;50.652;6.172;2023-03-22T05:18:30;95746.53;;;6.78;100.00
22862;BME280;11598;50.652;6.172;2023-03-22T05:28:31;95742.06;;;6.80;100.00
22862;BME280;11598;50.652;6.172;2023-03-22T05:38:32;95750.41;;;6.84;100.00
22862;BME280;11598;50.652;6.172;2023-03-22T05:48:32;95750.59;;;6.93;100.00
22862;BME280;11598;50.652;6.172;2023-03-22T05:58:33;95752.91;;;7.09;100.00
22862;BME280;11598;50.652;6.172;2023-03-22T06:08:34;95740.09;;;7.32;100.00
22862;BME280;11598;50.652;6.172;2023-03-22T06:18:34;95748.28;;;7.61;100.00
22862;BME280;11598;50.652;6.172;2023-03-22T06:28:35;95749.34;;;7.58;98.98
22862;BME280;11598;50.652;6.172;2023-03-22T06:38:35;95761.69;;;7.66;98.03
22862;BME280;11598;50.652;6.172;2023-03-22T06:48:35;95749.25;;;7.71;97.01
22862;BME280;11598;50.652;6.172;2023-03-22T06:58:36;95765.25;;;7.88;96.37
22862;BME280;11598;50.652;6.172;2023-03-22T07:08:36;95741.50;;;7.82;94.98
22862;BME280;11598;50.652;6.172;2023-03-22T07:18:37;95736.09;;;7.74;93.60
22862;BME280;11598;50.652;6.172;2023-03-22T07:28:37;95730.47;;;7.80;91.99
22862;BME280;11598;50.652;6.172;2023-03-22T07:38:40;95739.47;;;8.33;91.03
22862;BME280;11598;50.652;6.172;2023-03-22T07:48:41;95733.63;;;8.97;87.30
22862;BME280;11598;50.652;6.172;2023-03-22T07:58:41;95732.63;;;8.65;86.92
22862;BME280;11598;50.652;6.172;2023-03-22T08:08:41;95740.72;;;8.83;86.07
22862;BME280;11598;50.652;6.172;2023-03-22T08:18:42;95745.06;;;8.83;84.49
22862;BME280;11598;50.652;6.172;2023-03-22T08:28:42;95750.28;;;8.60;83.38
22862;BME280;11598;50.652;6.172;2023-03-22T08:38:43;95762.75;;;8.33;84.20
22862;BME280;11598;50.652;6.172;2023-03-22T08:48:45;95757.13;;;8.73;85.28
22862;BME280;11598;50.652;6.172;2023-03-22T08:58:49;95739.13;;;9.36;82.88
22862;BME280;11598;50.652;6.172;2023-03-22T09:08:50;95728.59;;;9.48;79.44
22862;BME280;11598;50.652;6.172;2023-03-22T09:18:51;95736.63;;;9.45;77.20
22862;BME280;11598;50.652;6.172;2023-03-22T09:28:51;95730.44;;;9.58;78.22
22862;BME280;11598;50.652;6.172;2023-03-22T09:38:51;95746.44;;;9.63;75.60
22862;BME280;11598;50.652;6.172;2023-03-22T09:48:52;95738.44;;;9.55;76.38
22862;BME280;11598;50.652;6.172;2023-03-22T10:19:56;95723.91;;;10.67;72.06
22862;BME280;11598;50.652;6.172;2023-03-22T10:30:08;95729.34;;;10.54;70.64
22862;BME280;11598;50.652;6.172;2023-03-22T10:40:16;95728.09;;;10.27;70.12
22862;BME280;11598;50.652;6.172;2023-03-22T10:50:25;95730.25;;;10.22;71.48
22862;BME280;11598;50.652;6.172;2023-03-22T11:00:28;95738.38;;;10.29;70.80
22862;BME280;11598;50.652;6.172;2023-03-22T11:10:31;95748.63;;;10.61;70.09
22862;BME280;11598;50.652;6.172;2023-03-22T11:20:33;95737.53;;;10.59;70.41
22862;BME280;11598;50.652;6.172;2023-03-22T11:30:34;95733.88;;;10.71;71.28
22862;BME280;11598;50.652;6.172;2023-03-22T11:40:35;95725.59;;;10.97;71.28
22862;BME280;11598;50.652;6.172;2023-03-22T11:50:38;95720.41;;;11.16;71.06
22862;BME280;11598;50.652;6.172;2023-03-22T12:00:39;95718.38;;;11.49;70.88
22862;BME280;11598;50.652;6.172;2023-03-22T12:10:42;95713.44;;;11.56;70.10
22862;BME280;11598;50.652;6.172;2023-03-22T12:30:53;95711.28;;;11.12;71.19
22862;BME280;11598;50.652;6.172;2023-03-22T12:41:01;95695.38;;;11.25;71.46
22862;BME280;11598;50.652;6.172;2023-03-22T12:51:06;95692.25;;;11.31;71.14
22862;BME280;11598;50.652;6.172;2023-03-22T13:11:29;95684.72;;;11.09;71.76
22862;BME280;11598;50.652;6.172;2023-03-22T13:21:31;95685.00;;;10.96;72.68
22862;BME280;11598;50.652;6.172;2023-03-22T13:42:20;95668.56;;;11.25;71.38
22862;BME280;11598;50.652;6.172;2023-03-22T13:52:25;95670.22;;;11.06;72.96
22862;BME280;11598;50.652;6.172;2023-03-22T14:02:29;95669.50;;;10.75;74.19
22862;BME280;11598;50.652;6.172;2023-03-22T14:23:01;95649.44;;;10.36;76.58
22862;BME280;11598;50.652;6.172;2023-03-22T14:33:14;95651.28;;;10.65;76.59
22862;BME280;11598;50.652;6.172;2023-03-22T14:53:25;95645.28;;;10.65;76.93
22862;BME280;11598;50.652;6.172;2023-03-22T15:03:27;95626.97;;;10.66;77.59
22862;BME280;11598;50.652;6.172;2023-03-22T15:13:33;95628.06;;;10.64;77.56
22862;BME280;11598;50.652;6.172;2023-03-22T15:23:38;95623.50;;;10.46;78.65
22862;BME280;11598;50.652;6.172;2023-03-22T15:33:38;95610.97;;;10.51;78.63
22862;BME280;11598;50.652;6.172;2023-03-22T15:43:39;95595.50;;;10.50;78.04
22862;BME280;11598;50.652;6.172;2023-03-22T15:53:39;95604.38;;;10.47;77.94
22862;BME280;11598;50.652;6.172;2023-03-22T16:03:45;95613.50;;;10.42;78.60
22862;BME280;11598;50.652;6.172;2023-03-22T16:13:47;95619.53;;;10.32;79.13
22862;BME280;11598;50.652;6.172;2023-03-22T16:23:47;95622.03;;;10.23;80.08
22862;BME280;11598;50.652;6.172;2023-03-22T16:33:48;95618.34;;;10.15;80.29
22862;BME280;11598;50.652;6.172;2023-03-22T16:43:49;95612.19;;;10.07;81.30
22862;BME280;11598;50.652;6.172;2023-03-22T16:53:51;95612.81;;;9.99;82.30
22862;BME280;11598;50.652;6.172;2023-03-22T17:03:51;95625.25;;;9.95;82.86
22862;BME280;11598;50.652;6.172;2023-03-22T17:13:54;95612.78;;;9.89;83.54
22862;BME280;11598;50.652;6.172;2023-03-22T17:23:54;95601.84;;;9.76;84.49
22862;BME280;11598;50.652;6.172;2023-03-22T17:33:55;95595.75;;;9.66;85.50
22862;BME280;11598;50.652;6.172;2023-03-22T17:43:56;95587.13;;;9.56;85.94
22862;BME280;11598;50.652;6.172;2023-03-22T17:53:57;95593.78;;;9.48;86.75
22862;BME280;11598;50.652;6.172;2023-03-22T18:03:57;95590.06;;;9.41;87.50
22862;BME280;11598;50.652;6.172;2023-03-22T18:13:58;95583.59;;;9.36;87.85
22862;BME280;11598;50.652;6.172;2023-03-22T18:23:59;95588.22;;;9.32;88.94
22862;BME280;11598;50.652;6.172;2023-03-22T18:34:00;95590.00;;;9.31;89.38
22862;BME280;11598;50.652;6.172;2023-03-22T18:44:00;95595.19;;;9.31;89.86
22862;BME280;11598;50.652;6.172;2023-03-22T18:54:01;95570.63;;;9.36;89.87
22862;BME280;11598;50.652;6.172;2023-03-22T19:04:02;95579.91;;;9.38;90.11
22862;BME280;11598;50.652;6.172;2023-03-22T19:14:03;95560.16;;;9.37;90.11
22862;BME280;11598;50.652;6.172;2023-03-22T19:24:04;95541.03;;;9.38;90.41
22862;BME280;11598;50.652;6.172;2023-03-22T19:34:04;95532.56;;;9.05;93.23
22862;BME280;11598;50.652;6.172;2023-03-22T19:44:05;95539.66;;;8.82;95.38
22862;BME280;11598;50.652;6.172;2023-03-22T19:54:05;95542.78;;;8.86;95.91
22862;BME280;11598;50.652;6.172;2023-03-22T20:04:05;95536.03;;;8.95;95.48
22862;BME280;11598;50.652;6.172;2023-03-22T20:14:06;95535.53;;;9.01;95.50
22862;BME280;11598;50.652;6.172;2023-03-22T20:24:08;95533.44;;;8.95;96.83
22862;BME280;11598;50.652;6.172;2023-03-22T20:34:08;95522.97;;;8.96;97.00
22862;BME280;11598;50.652;6.172;2023-03-22T20:44:10;95518.78;;;9.05;95.82
22862;BME280;11598;50.652;6.172;2023-03-22T20:54:10;95507.91;;;9.11;94.78
22862;BME280;11598;50.652;6.172;2023-03-22T21:04:11;95477.66;;;9.21;93.54
22862;BME280;11598;50.652;6.172;2023-03-22T21:14:11;95473.03;;;9.15;93.84
22862;BME280;11598;50.652;6.172;2023-03-22T21:24:11;95479.78;;;9.06;94.51
22862;BME280;11598;50.652;6.172;2023-03-22T21:34:12;95481.56;;;9.06;94.27
22862;BME280;11598;50.652;6.172;2023-03-22T21:44:12;95470.78;;;9.01;94.65
22862;BME280;11598;50.652;6.172;2023-03-22T21:54:13;95472.84;;;9.07;94.44
22862;BME280;11598;50.652;6.172;2023-03-22T22:04:13;95482.53;;;9.15;93.69
22862;BME280;11598;50.652;6.172;2023-03-22T22:14:13;95447.09;;;9.15;93.83
22862;BME280;11598;50.652;6.172;2023-03-22T22:24:14;95471.66;;;8.90;97.32
22862;BME280;11598;50.652;6.172;2023-03-22T22:34:14;95469.19;;;8.46;100.00
22862;BME280;11598;50.652;6.172;2023-03-22T22:44:15;95455.09;;;8.18;100.00
22862;BME280;11598;50.652;6.172;2023-03-22T22:54:17;95463.69;;;8.08;100.00
22862;BME280;11598;50.652;6.172;2023-03-22T23:04:17;95432.56;;;7.98;100.00
22862;BME280;11598;50.652;6.172;2023-03-22T23:14:18;95430.63;;;7.90;100.00
22862;BME280;11598;50.652;6.172;2023-03-22T23:24:19;95405.56;;;7.91;100.00
22862;BME280;11598;50.652;6.172;2023-03-22T23:34:20;95420.28;;;7.90;100.00
22862;BME280;11598;50.652;6.172;2023-03-22T23:44:20;95388.84;;;7.95;100.00
22862;BME280;11598;50.652;6.172;2023-03-22T23:54:20;95377.31;;;7.99;100.00
